createdAt,value
2024-01-29T00:00:21.599Z,20.38
2024-01-29T00:02:50.607Z,21.17
2024-01-29T00:05:17.887Z,21.73
2024-01-29T00:07:44.615Z,18.63
2024-01-29T00:10:14.093Z,20.33
2024-01-29T00:12:43.085Z,19.58
2024-01-29T00:15:09.881Z,21.05
2024-01-29T00:17:41.271Z,18.77
2024-01-29T00:20:08.792Z,17.42
2024-01-29T00:22:35.487Z,17.20
2024-01-29T00:25:04.577Z,22.17
2024-01-29T00:27:33.639Z,19.88
2024-01-29T00:30:03.222Z,16.60
2024-01-29T00:32:30.541Z,16.42
2024-01-29T00:34:57.332Z,15.03
2024-01-29T00:37:24.663Z,17.98
2024-01-29T00:39:53.945Z,16.98
2024-01-29T00:42:22.908Z,22.88
2024-01-29T00:44:51.760Z,16.42
2024-01-29T00:47:19.292Z,16.00
2024-01-29T00:49:46.151Z,15.43
2024-01-29T00:52:15.129Z,16.67
2024-01-29T00:54:43.896Z,16.23
2024-01-29T00:57:11.670Z,18.25
2024-01-29T00:59:40.468Z,16.87
2024-01-29T01:02:07.253Z,17.70
2024-01-29T01:04:36.489Z,17.45
2024-01-29T01:07:05.459Z,15.45
2024-01-29T01:09:32.180Z,19.58
2024-01-29T01:12:01.511Z,21.57
2024-01-29T01:14:32.939Z,25.17
2024-01-29T01:16:59.607Z,33.53
2024-01-29T01:19:26.325Z,21.48
2024-01-29T01:21:53.022Z,19.77
2024-01-29T01:24:24.396Z,22.93
2024-01-29T01:26:51.097Z,19.63
2024-01-29T01:29:19.212Z,21.00
2024-01-29T01:31:45.903Z,18.63
2024-01-29T01:34:15.125Z,19.30
2024-01-29T01:36:44.205Z,25.23
2024-01-29T01:39:11.614Z,23.13
2024-01-29T01:41:40.447Z,25.40
2024-01-29T01:44:07.197Z,25.60
2024-01-29T01:46:34.010Z,25.30
2024-01-29T01:49:01.321Z,22.20
2024-01-29T01:51:30.488Z,27.00
2024-01-29T01:54:01.999Z,22.77
2024-01-29T01:56:36.328Z,22.70
2024-01-29T01:59:05.821Z,23.80
2024-01-29T02:01:38.321Z,24.17
2024-01-29T02:04:05.264Z,22.20
2024-01-29T02:06:32.326Z,22.55
2024-01-29T02:08:59.981Z,23.55
2024-01-29T02:11:26.597Z,24.45
2024-01-29T02:13:55.396Z,27.67
2024-01-29T02:16:22.019Z,22.60
2024-01-29T02:18:51.165Z,25.17
2024-01-29T02:21:17.883Z,27.95
2024-01-29T02:23:47.750Z,43.58
2024-01-29T02:26:17.112Z,34.87
2024-01-29T02:28:43.721Z,49.08
2024-01-29T02:31:15.355Z,46.15
2024-01-29T02:33:42.078Z,26.50
2024-01-29T02:36:11.706Z,53.25
2024-01-29T02:38:38.522Z,46.87
2024-01-29T02:41:07.448Z,64.40
2024-01-29T02:43:34.070Z,65.65
2024-01-29T02:46:03.232Z,35.75
2024-01-29T02:48:29.956Z,53.03
2024-01-29T02:50:56.579Z,46.90
2024-01-29T02:53:25.537Z,33.28
2024-01-29T02:55:54.579Z,31.55
2024-01-29T02:58:23.682Z,34.65
2024-01-29T03:00:52.999Z,32.95
2024-01-29T03:03:19.691Z,33.67
2024-01-29T03:05:49.454Z,43.40
2024-01-29T03:08:18.876Z,30.50
2024-01-29T03:10:45.814Z,35.58
2024-01-29T03:13:14.905Z,28.40
2024-01-29T03:15:46.580Z,31.87
2024-01-29T03:18:16.067Z,30.00
2024-01-29T03:20:44.982Z,31.63
2024-01-29T03:23:16.435Z,29.55
2024-01-29T03:25:43.000Z,38.08
2024-01-29T03:28:11.916Z,38.27
2024-01-29T03:30:38.766Z,37.30
2024-01-29T03:33:05.620Z,50.97
2024-01-29T03:35:32.291Z,54.13
2024-01-29T03:38:03.620Z,42.30
2024-01-29T03:40:32.464Z,47.60
2024-01-29T03:43:01.509Z,47.60
2024-01-29T03:45:31.178Z,27.70
2024-01-29T03:48:00.440Z,34.75
2024-01-29T03:50:27.054Z,38.92
2024-01-29T03:52:53.644Z,32.60
2024-01-29T03:55:20.354Z,25.60
2024-01-29T03:57:49.433Z,32.53
2024-01-29T04:00:20.091Z,36.88
2024-01-29T04:02:51.148Z,25.42
2024-01-29T04:05:20.646Z,28.47
2024-01-29T04:07:47.409Z,25.13
2024-01-29T04:10:16.790Z,27.10
2024-01-29T04:12:43.819Z,25.08
2024-01-29T04:15:10.657Z,25.60
2024-01-29T04:17:37.491Z,24.43
2024-01-29T04:20:07.193Z,25.20
2024-01-29T04:22:36.614Z,27.08
2024-01-29T04:25:08.337Z,28.38
2024-01-29T04:27:37.486Z,29.98
2024-01-29T04:30:04.633Z,25.03
2024-01-29T04:32:33.349Z,27.10
2024-01-29T04:35:00.109Z,24.00
2024-01-29T04:37:29.100Z,25.83
2024-01-29T04:39:58.800Z,28.70
2024-01-29T04:42:26.192Z,23.50
2024-01-29T04:44:52.808Z,28.27
2024-01-29T04:47:22.597Z,26.58
2024-01-29T04:49:49.211Z,28.10
2024-01-29T04:52:15.861Z,20.00
2024-01-29T04:54:44.837Z,23.00
2024-01-29T04:57:13.656Z,21.25
2024-01-29T04:59:40.238Z,26.20
2024-01-29T05:02:06.832Z,25.33
2024-01-29T05:04:38.309Z,24.90
2024-01-29T05:07:07.199Z,20.23
2024-01-29T05:09:33.831Z,26.02
2024-01-29T05:12:03.421Z,22.30
2024-01-29T05:14:32.283Z,18.45
2024-01-29T05:17:03.842Z,22.05
2024-01-29T05:19:32.862Z,23.83
2024-01-29T05:21:59.634Z,19.27
2024-01-29T05:24:29.314Z,19.35
2024-01-29T05:26:55.960Z,30.45
2024-01-29T05:29:26.049Z,45.00
2024-01-29T05:31:52.664Z,41.43
2024-01-29T05:34:19.385Z,36.40
2024-01-29T05:36:46.047Z,43.85
2024-01-29T05:39:14.844Z,20.05
2024-01-29T05:41:41.473Z,47.08
2024-01-29T05:44:08.241Z,17.70
2024-01-29T05:46:34.883Z,27.15
2024-01-29T05:49:01.611Z,25.05
2024-01-29T05:51:31.264Z,16.02
2024-01-29T05:53:57.874Z,21.40
2024-01-29T05:56:26.655Z,29.37
2024-01-29T05:58:55.527Z,30.70
2024-01-29T06:01:22.305Z,22.63
2024-01-29T06:03:51.203Z,23.77
2024-01-29T06:06:25.064Z,20.45
2024-01-29T06:08:51.683Z,19.70
2024-01-29T06:11:18.574Z,18.90
2024-01-29T06:13:45.259Z,23.05
2024-01-29T06:16:12.005Z,18.63
2024-01-29T06:18:41.094Z,28.02
2024-01-29T06:21:10.705Z,24.70
2024-01-29T06:23:37.335Z,20.60
2024-01-29T06:26:07.424Z,19.83
2024-01-29T06:28:34.032Z,22.60
2024-01-29T06:31:03.361Z,19.25
2024-01-29T06:33:32.230Z,22.57
2024-01-29T06:36:00.974Z,21.48
2024-01-29T06:38:31.267Z,20.45
2024-01-29T06:40:58.506Z,24.38
2024-01-29T06:43:25.358Z,28.33
2024-01-29T06:45:54.258Z,22.87
2024-01-29T06:48:20.881Z,17.85
2024-01-29T06:50:47.519Z,24.80
2024-01-29T06:53:14.219Z,19.30
2024-01-29T06:55:41.089Z,25.35
2024-01-29T06:58:09.986Z,27.33
2024-01-29T07:00:39.060Z,25.80
2024-01-29T07:03:06.225Z,21.35
2024-01-29T07:05:35.113Z,28.80
2024-01-29T07:08:06.815Z,19.27
2024-01-29T07:10:36.132Z,17.23
2024-01-29T07:13:02.756Z,16.58
2024-01-29T07:15:29.926Z,45.25
2024-01-29T07:17:56.656Z,20.45
2024-01-29T07:20:24.652Z,23.88
2024-01-29T07:22:52.241Z,21.03
2024-01-29T07:25:18.978Z,30.88
2024-01-29T07:27:47.949Z,21.85
2024-01-29T07:30:15.332Z,35.53
2024-01-29T07:32:43.417Z,21.35
2024-01-29T07:35:10.919Z,20.70
2024-01-29T07:37:39.838Z,20.85
2024-01-29T07:40:09.012Z,20.98
2024-01-29T07:42:35.754Z,23.05
2024-01-29T07:45:02.747Z,25.88
2024-01-29T07:47:31.715Z,22.57
2024-01-29T07:49:58.316Z,22.92
2024-01-29T07:52:25.070Z,39.05
2024-01-29T07:54:53.759Z,29.30
2024-01-29T07:57:20.415Z,21.83
2024-01-29T07:59:47.204Z,24.77
2024-01-29T08:02:14.620Z,34.30
2024-01-29T08:04:43.707Z,26.80
2024-01-29T08:07:12.744Z,25.05
2024-01-29T08:09:42.480Z,27.00
2024-01-29T08:12:09.390Z,24.47
2024-01-29T08:14:38.551Z,35.30
2024-01-29T08:17:07.237Z,22.63
2024-01-29T08:19:34.285Z,20.98
2024-01-29T08:22:01.256Z,24.73
2024-01-29T08:24:28.162Z,26.40
2024-01-29T08:26:59.667Z,25.20
2024-01-29T08:29:31.344Z,24.08
2024-01-29T08:32:00.207Z,22.73
2024-01-29T08:34:30.901Z,22.45
2024-01-29T08:37:00.370Z,28.90
2024-01-29T08:39:29.337Z,20.30
2024-01-29T08:42:04.508Z,23.65
2024-01-29T08:44:31.139Z,21.63
2024-01-29T08:47:00.795Z,30.42
2024-01-29T08:49:32.292Z,21.50
2024-01-29T08:51:58.894Z,23.67
2024-01-29T08:54:27.928Z,22.98
2024-01-29T08:56:54.641Z,26.08
2024-01-29T08:59:22.326Z,30.23
2024-01-29T09:01:51.877Z,27.90
2024-01-29T09:04:21.690Z,25.30
2024-01-29T09:06:48.439Z,29.38
2024-01-29T09:09:17.573Z,26.20
2024-01-29T09:11:47.384Z,27.00
2024-01-29T09:14:14.288Z,23.97
2024-01-29T09:16:40.979Z,24.73
2024-01-29T09:19:12.228Z,26.42
2024-01-29T09:21:48.055Z,26.30
2024-01-29T09:24:14.688Z,25.98
2024-01-29T09:26:41.283Z,29.90
2024-01-29T09:29:07.882Z,24.85
2024-01-29T09:31:36.864Z,25.35
2024-01-29T09:34:08.201Z,23.73
2024-01-29T09:36:37.983Z,22.98
2024-01-29T09:39:04.730Z,28.30
2024-01-29T09:41:38.778Z,26.58
2024-01-29T09:44:15.817Z,30.23
2024-01-29T09:46:45.500Z,26.95
2024-01-29T09:49:12.222Z,26.63
2024-01-29T09:51:39.392Z,28.40
2024-01-29T09:54:12.673Z,22.30
2024-01-29T09:56:39.334Z,26.23
2024-01-29T09:59:05.936Z,23.60
2024-01-29T10:01:36.694Z,29.08
2024-01-29T10:04:06.384Z,27.80
2024-01-29T10:06:37.863Z,23.80
2024-01-29T10:09:10.016Z,24.92
2024-01-29T10:11:40.398Z,24.42
2024-01-29T10:14:08.168Z,27.73
2024-01-29T10:16:37.075Z,23.33
2024-01-29T10:19:04.565Z,24.95
2024-01-29T10:21:49.247Z,26.77
2024-01-29T10:24:21.057Z,26.55
2024-01-29T10:26:47.704Z,23.60
2024-01-29T10:29:17.738Z,22.70
2024-01-29T10:31:44.564Z,28.17
2024-01-29T10:34:13.512Z,26.08
2024-01-29T10:36:41.651Z,27.83
2024-01-29T10:39:15.681Z,25.67
2024-01-29T10:41:44.322Z,26.10
2024-01-29T10:44:18.921Z,25.92
2024-01-29T10:46:48.300Z,27.58
2024-01-29T10:49:16.672Z,26.23
2024-01-29T10:51:48.594Z,23.70
2024-01-29T10:54:16.594Z,25.90
2024-01-29T10:56:43.436Z,26.08
2024-01-29T10:59:13.635Z,27.17
2024-01-29T11:01:44.469Z,29.70
2024-01-29T11:04:22.207Z,26.55
2024-01-29T11:06:58.965Z,23.83
2024-01-29T11:09:28.626Z,27.02
2024-01-29T11:11:56.403Z,24.65
2024-01-29T11:14:23.240Z,26.67
2024-01-29T11:16:53.736Z,25.42
2024-01-29T11:19:30.363Z,25.13
2024-01-29T11:22:02.079Z,25.92
2024-01-29T11:24:29.009Z,25.55
2024-01-29T11:27:06.962Z,27.05
2024-01-29T11:29:37.289Z,24.60
2024-01-29T11:32:10.869Z,25.90
2024-01-29T11:34:38.229Z,24.42
2024-01-29T11:37:05.100Z,25.63
2024-01-29T11:39:31.804Z,25.42
2024-01-29T11:42:05.639Z,25.70
2024-01-29T11:44:32.831Z,24.30
2024-01-29T11:47:09.646Z,26.23
2024-01-29T11:49:39.672Z,24.80
2024-01-29T11:52:10.685Z,26.05
2024-01-29T11:54:42.936Z,23.58
2024-01-29T11:57:09.594Z,24.70
2024-01-29T11:59:47.732Z,25.48
2024-01-29T12:02:14.431Z,22.25
2024-01-29T12:04:44.639Z,21.55
2024-01-29T12:07:13.532Z,21.50
2024-01-29T12:09:40.220Z,23.83
2024-01-29T12:12:11.231Z,24.27
2024-01-29T12:14:40.376Z,24.05
2024-01-29T12:17:13.385Z,22.27
2024-01-29T12:19:40.519Z,21.50
2024-01-29T12:22:13.659Z,21.83
2024-01-29T12:24:40.437Z,23.60
2024-01-29T12:27:10.891Z,20.90
2024-01-29T12:29:38.014Z,20.60
2024-01-29T12:32:10.653Z,23.35
2024-01-29T12:34:47.003Z,21.90
2024-01-29T12:37:27.193Z,24.15
2024-01-29T12:39:55.851Z,23.95
2024-01-29T12:42:24.280Z,19.55
2024-01-29T12:44:56.259Z,22.65
2024-01-29T12:47:26.543Z,23.50
2024-01-29T12:49:55.743Z,25.10
2024-01-29T12:52:24.751Z,21.50
2024-01-29T12:54:51.840Z,20.70
2024-01-29T12:57:20.932Z,23.83
2024-01-29T12:59:47.577Z,20.53
2024-01-29T13:02:16.423Z,22.48
2024-01-29T13:04:43.120Z,20.35
2024-01-29T13:07:09.971Z,21.92
2024-01-29T13:09:39.991Z,21.63
2024-01-29T13:12:09.010Z,21.03
2024-01-29T13:14:35.652Z,20.27
2024-01-29T13:17:02.284Z,21.52
2024-01-29T13:19:31.143Z,20.15
2024-01-29T13:21:57.869Z,19.48
2024-01-29T13:24:29.550Z,19.07
2024-01-29T13:26:56.767Z,20.30
2024-01-29T13:29:26.963Z,19.38
2024-01-29T13:31:57.288Z,23.23
2024-01-29T13:34:25.935Z,21.02
2024-01-29T13:36:56.986Z,20.63
2024-01-29T13:39:23.913Z,21.23
2024-01-29T13:41:53.622Z,19.55
2024-01-29T13:44:20.877Z,19.95
2024-01-29T13:46:47.734Z,24.15
2024-01-29T13:49:19.578Z,19.60
2024-01-29T13:51:46.441Z,19.52
2024-01-29T13:54:13.920Z,18.85
2024-01-29T13:56:40.714Z,21.05
2024-01-29T13:59:09.661Z,18.42
2024-01-29T14:01:42.739Z,18.80
2024-01-29T14:04:14.402Z,20.63
2024-01-29T14:06:42.187Z,20.42
2024-01-29T14:09:09.621Z,19.67
2024-01-29T14:11:36.361Z,18.27
2024-01-29T14:14:05.549Z,19.20
2024-01-29T14:16:34.352Z,18.52
2024-01-29T14:19:04.186Z,20.48
2024-01-29T14:21:30.900Z,21.08
2024-01-29T14:24:00.572Z,19.98
2024-01-29T14:26:27.222Z,20.87
2024-01-29T14:28:53.836Z,25.23
2024-01-29T14:31:20.560Z,19.85
2024-01-29T14:33:48.070Z,20.13
2024-01-29T14:36:19.522Z,18.63
2024-01-29T14:38:49.043Z,20.60
2024-01-29T14:41:17.932Z,19.80
2024-01-29T14:43:48.823Z,19.80
2024-01-29T14:46:15.415Z,17.40
2024-01-29T14:48:42.354Z,20.38
2024-01-29T14:51:11.861Z,21.30
2024-01-29T14:53:45.798Z,18.63
2024-01-29T14:56:14.016Z,19.33
2024-01-29T14:58:43.590Z,18.42
2024-01-29T15:01:12.630Z,16.60
2024-01-29T15:03:41.597Z,19.90
2024-01-29T15:06:08.552Z,21.63
2024-01-29T15:08:43.504Z,17.27
2024-01-29T15:11:11.053Z,19.45
2024-01-29T15:13:39.916Z,18.95
2024-01-29T15:16:07.690Z,19.80
2024-01-29T15:18:36.774Z,17.27
2024-01-29T15:21:05.677Z,18.23
2024-01-29T15:23:32.382Z,18.88
2024-01-29T15:25:58.983Z,17.95
2024-01-29T15:28:25.929Z,18.20
2024-01-29T15:30:55.445Z,17.00
2024-01-29T15:33:24.282Z,18.70
2024-01-29T15:35:50.919Z,17.70
2024-01-29T15:38:19.701Z,17.00
2024-01-29T15:40:53.631Z,17.60
2024-01-29T15:43:20.550Z,16.67
2024-01-29T15:45:48.602Z,15.15
2024-01-29T15:48:21.033Z,15.95
2024-01-29T15:50:50.574Z,15.25
2024-01-29T15:53:17.180Z,14.53
2024-01-29T15:55:43.824Z,15.02
2024-01-29T15:58:12.630Z,17.88
2024-01-29T16:00:39.407Z,15.23
2024-01-29T16:03:08.472Z,16.45
2024-01-29T16:05:39.918Z,16.13
2024-01-29T16:08:10.863Z,14.32
2024-01-29T16:10:37.958Z,16.00
2024-01-29T16:13:06.910Z,14.13
2024-01-29T16:15:36.315Z,13.90
2024-01-29T16:18:07.818Z,13.33
2024-01-29T16:20:42.616Z,15.13
2024-01-29T16:23:09.472Z,15.57
2024-01-29T16:25:36.087Z,17.10
2024-01-29T16:28:02.908Z,19.10
2024-01-29T16:30:29.577Z,13.93
2024-01-29T16:32:58.367Z,16.15
2024-01-29T16:35:27.310Z,16.48
2024-01-29T16:37:54.053Z,15.48
2024-01-29T16:40:25.796Z,15.95
2024-01-29T16:42:59.798Z,16.53
2024-01-29T16:45:28.954Z,16.40
2024-01-29T16:47:57.708Z,14.63
2024-01-29T16:50:25.448Z,14.32
2024-01-29T16:52:54.773Z,14.20
2024-01-29T16:55:21.409Z,16.50
2024-01-29T16:57:48.117Z,14.20
2024-01-29T17:00:15.406Z,16.65
2024-01-29T17:02:42.035Z,15.63
2024-01-29T17:05:11.585Z,14.00
2024-01-29T17:07:38.532Z,15.53
2024-01-29T17:10:06.262Z,15.48
2024-01-29T17:12:32.955Z,15.65
2024-01-29T17:14:59.658Z,17.92
2024-01-29T17:17:26.334Z,14.05
2024-01-29T17:19:53.142Z,18.13
2024-01-29T17:22:22.455Z,20.90
2024-01-29T17:24:49.175Z,20.88
2024-01-29T17:27:15.850Z,15.55
2024-01-29T17:29:44.929Z,23.20
2024-01-29T17:32:11.513Z,17.27
2024-01-29T17:34:39.189Z,13.38
2024-01-29T17:37:08.362Z,15.13
2024-01-29T17:39:38.778Z,14.82
2024-01-29T17:42:05.505Z,13.32
2024-01-29T17:44:34.412Z,13.33
2024-01-29T17:47:01.136Z,15.63
2024-01-29T17:49:32.122Z,15.38
2024-01-29T17:52:01.406Z,12.52
2024-01-29T17:54:28.043Z,14.23
2024-01-29T17:56:54.617Z,14.63
2024-01-29T17:59:23.456Z,20.88
2024-01-29T18:01:50.139Z,15.10
2024-01-29T18:04:18.427Z,13.95
2024-01-29T18:06:50.746Z,14.65
2024-01-29T18:09:17.525Z,15.63
2024-01-29T18:11:44.239Z,15.80
2024-01-29T18:14:13.063Z,16.92
2024-01-29T18:16:39.666Z,18.00
2024-01-29T18:19:09.136Z,19.15
2024-01-29T18:21:39.449Z,18.17
2024-01-29T18:24:11.008Z,17.33
2024-01-29T18:26:41.074Z,20.48
2024-01-29T18:29:07.870Z,20.33
2024-01-29T18:31:37.050Z,24.90
2024-01-29T18:34:06.710Z,27.17
2024-01-29T18:36:33.486Z,25.90
2024-01-29T18:39:03.300Z,22.73
2024-01-29T18:41:30.064Z,24.65
2024-01-29T18:43:59.161Z,19.85
2024-01-29T18:46:25.865Z,18.47
2024-01-29T18:48:52.733Z,19.35
2024-01-29T18:51:31.626Z,21.55
2024-01-29T18:54:00.670Z,19.85
2024-01-29T18:56:31.594Z,23.02
2024-01-29T18:58:58.494Z,21.07
2024-01-29T19:01:25.716Z,22.05
2024-01-29T19:04:01.929Z,20.98
2024-01-29T19:06:31.603Z,19.83
2024-01-29T19:08:58.470Z,23.13
2024-01-29T19:11:28.831Z,19.03
2024-01-29T19:13:55.450Z,18.90
2024-01-29T19:16:26.832Z,19.02
2024-01-29T19:18:53.482Z,22.90
2024-01-29T19:21:22.630Z,16.45
2024-01-29T19:23:49.235Z,21.83
2024-01-29T19:26:18.154Z,16.92
2024-01-29T19:28:44.774Z,17.13
2024-01-29T19:31:16.148Z,16.98
2024-01-29T19:33:43.848Z,18.65
2024-01-29T19:36:17.205Z,20.87
2024-01-29T19:38:43.805Z,21.25
2024-01-29T19:41:12.931Z,21.73
2024-01-29T19:43:39.549Z,19.02
2024-01-29T19:46:06.276Z,21.52
2024-01-29T19:48:33.119Z,21.77
2024-01-29T19:51:02.037Z,17.38
2024-01-29T19:53:28.596Z,20.20
2024-01-29T19:55:58.269Z,22.30
2024-01-29T19:58:24.941Z,16.63
2024-01-29T20:00:51.693Z,17.27
2024-01-29T20:03:18.398Z,17.50
2024-01-29T20:05:49.376Z,19.67
2024-01-29T20:08:19.259Z,20.63
2024-01-29T20:10:46.498Z,21.30
2024-01-29T20:13:16.022Z,20.70
2024-01-29T20:15:42.912Z,20.63
2024-01-29T20:18:09.651Z,17.88
2024-01-29T20:20:36.378Z,20.50
2024-01-29T20:23:03.020Z,20.85
2024-01-29T20:25:29.653Z,17.27
2024-01-29T20:27:58.704Z,18.42
2024-01-29T20:30:30.151Z,18.17
2024-01-29T20:32:59.290Z,17.38
2024-01-29T20:35:26.028Z,19.08
2024-01-29T20:37:57.286Z,17.80
2024-01-29T20:40:29.378Z,22.20
2024-01-29T20:43:00.499Z,22.30
2024-01-29T20:45:31.587Z,21.05
2024-01-29T20:47:58.400Z,18.85
2024-01-29T20:50:25.157Z,19.97
2024-01-29T20:52:52.869Z,20.20
2024-01-29T20:55:20.541Z,19.88
2024-01-29T20:57:48.412Z,19.63
2024-01-29T21:00:15.590Z,21.13
2024-01-29T21:02:44.454Z,20.23
2024-01-29T21:05:21.365Z,20.20
2024-01-29T21:07:50.633Z,18.85
2024-01-29T21:10:19.873Z,16.92
2024-01-29T21:12:47.506Z,17.02
2024-01-29T21:15:16.806Z,20.13
2024-01-29T21:17:45.782Z,18.65
2024-01-29T21:20:22.761Z,18.83
2024-01-29T21:22:49.348Z,20.98
2024-01-29T21:25:16.244Z,16.58
2024-01-29T21:27:43.373Z,17.70
2024-01-29T21:30:11.911Z,18.23
2024-01-29T21:32:38.996Z,13.98
2024-01-29T21:35:08.743Z,18.75
2024-01-29T21:37:37.851Z,18.02
2024-01-29T21:40:05.404Z,19.57
2024-01-29T21:42:32.257Z,16.02
2024-01-29T21:45:03.921Z,17.15
2024-01-29T21:47:35.160Z,19.02
2024-01-29T21:50:04.770Z,19.17
2024-01-29T21:52:31.778Z,17.40
2024-01-29T21:54:58.652Z,19.48
2024-01-29T21:57:30.064Z,19.42
2024-01-29T22:00:01.724Z,18.50
2024-01-29T22:02:28.309Z,20.40
2024-01-29T22:04:59.997Z,18.70
2024-01-29T22:07:28.475Z,20.65
2024-01-29T22:09:56.496Z,18.60
2024-01-29T22:12:27.805Z,19.02
2024-01-29T22:14:54.501Z,21.70
2024-01-29T22:17:21.098Z,20.23
2024-01-29T22:19:47.804Z,21.02
2024-01-29T22:22:16.799Z,19.33
2024-01-29T22:24:45.720Z,19.52
2024-01-29T22:27:12.329Z,19.15
2024-01-29T22:29:40.334Z,16.83
2024-01-29T22:32:07.882Z,18.88
2024-01-29T22:34:35.797Z,19.95
2024-01-29T22:37:02.507Z,16.98
2024-01-29T22:39:29.205Z,17.90
2024-01-29T22:41:58.020Z,16.80
2024-01-29T22:44:24.649Z,20.00
2024-01-29T22:46:51.287Z,19.60
2024-01-29T22:49:18.869Z,18.08
2024-01-29T22:51:50.672Z,19.25
2024-01-29T22:54:17.308Z,16.73
2024-01-29T22:56:43.926Z,17.35
2024-01-29T22:59:10.766Z,17.65
2024-01-29T23:01:37.540Z,18.92
2024-01-29T23:04:04.421Z,18.67
2024-01-29T23:06:31.179Z,16.53
2024-01-29T23:09:00.131Z,20.45
2024-01-29T23:11:26.677Z,23.15
2024-01-29T23:13:53.368Z,21.55
2024-01-29T23:16:20.092Z,18.17
2024-01-29T23:18:46.902Z,19.03
2024-01-29T23:21:16.276Z,17.45
2024-01-29T23:23:45.986Z,15.85
2024-01-29T23:26:17.061Z,17.90
2024-01-29T23:28:43.685Z,16.13
2024-01-29T23:31:10.330Z,21.13
2024-01-29T23:33:37.197Z,17.00
2024-01-29T23:36:04.484Z,17.90
2024-01-29T23:38:31.120Z,19.17
2024-01-29T23:41:00.012Z,17.65
2024-01-29T23:43:31.519Z,22.57
2024-01-29T23:46:00.405Z,20.42
2024-01-29T23:48:29.335Z,20.42
2024-01-29T23:50:58.171Z,20.48
2024-01-29T23:53:27.173Z,20.90
2024-01-29T23:55:53.797Z,19.13
2024-01-29T23:58:20.587Z,19.73
